Time;durP1;ratioP1;P1;durP2;ratioP2;P2;SDS_P1;SDS_P2;PMS_P1;PMS_P2;Temp;Humidity;BMP_temperature;BMP_pressure;BME280_temperature;BME280_humidity;BME280_pressure;Samples;Min_cycle;Max_cycle;Signal;HPM_P1;HPM_P2
2021/10/05 00:02:21;;;;;;;8.68;4.80;;;;;;;15.64;100.00;101930.09;5117554;28;20106;-73
2021/10/05 00:05:08;;;;;;;6.13;5.38;;;;;;;15.60;100.00;101939.00;5117505;28;20028;-73
2021/10/05 00:07:54;;;;;;;7.35;5.40;;;;;;;15.40;100.00;101938.47;5118640;28;20023;-73
2021/10/05 00:10:39;;;;;;;9.18;5.68;;;;;;;15.37;100.00;101938.53;5116720;28;20054;-73
2021/10/05 00:13:25;;;;;;;9.07;5.38;;;;;;;15.22;100.00;101937.00;5102849;28;20074;-73
2021/10/05 00:16:11;;;;;;;12.68;6.18;;;;;;;15.38;100.00;101940.28;5117019;28;20035;-74
2021/10/05 00:18:57;;;;;;;8.82;6.53;;;;;;;14.62;100.00;101935.31;5116825;28;20098;-73
2021/10/05 00:21:43;;;;;;;7.05;5.85;;;;;;;14.82;100.00;101931.50;5116884;28;20023;-73
2021/10/05 00:24:28;;;;;;;8.35;6.15;;;;;;;14.81;100.00;101934.16;5117319;28;20446;-73
2021/10/05 00:27:14;;;;;;;8.95;5.40;;;;;;;14.92;100.00;101937.50;5116810;28;20028;-73
2021/10/05 00:30:01;;;;;;;7.60;5.60;;;;;;;14.73;100.00;101936.94;5115238;28;20020;-73
2021/10/05 00:32:46;;;;;;;11.40;6.20;;;;;;;14.92;100.00;101934.00;5116566;28;20118;-73
2021/10/05 00:35:32;;;;;;;12.23;5.90;;;;;;;15.07;100.00;101939.88;5116193;28;20028;-73
2021/10/05 00:38:18;;;;;;;9.30;6.10;;;;;;;15.07;100.00;101933.75;5117334;28;20031;-73
2021/10/05 00:41:04;;;;;;;10.13;6.53;;;;;;;14.80;100.00;101937.69;5101275;28;20371;-73
2021/10/05 00:43:50;;;;;;;12.32;7.57;;;;;;;14.42;100.00;101940.00;5102471;28;20015;-72
2021/10/05 00:46:36;;;;;;;12.43;8.02;;;;;;;14.68;100.00;101937.88;5115064;28;20031;-72
2021/10/05 00:49:21;;;;;;;12.90;7.55;;;;;;;14.42;100.00;101937.38;5101341;28;20480;-73
2021/10/05 00:52:08;;;;;;;12.40;7.88;;;;;;;14.75;100.00;101944.78;5115780;28;20390;-73
2021/10/05 00:54:54;;;;;;;13.30;8.27;;;;;;;14.24;100.00;101946.38;5101848;28;20055;-73
2021/10/05 00:57:40;;;;;;;17.67;8.70;;;;;;;13.91;100.00;101952.03;5115737;28;20051;-73
2021/10/05 01:00:26;;;;;;;13.10;8.60;;;;;;;13.74;100.00;101946.09;5116236;28;20024;-73
2021/10/05 01:03:12;;;;;;;13.60;8.48;;;;;;;13.66;100.00;101942.66;5116272;28;20034;-74
2021/10/05 01:05:58;;;;;;;17.63;9.15;;;;;;;13.77;100.00;101946.06;5115609;28;20031;-73
2021/10/05 01:08:43;;;;;;;14.32;9.32;;;;;;;14.13;100.00;101939.50;5115890;28;20460;-72
2021/10/05 01:11:29;;;;;;;14.55;8.55;;;;;;;14.15;100.00;101945.63;5115426;28;20061;-73
2021/10/05 01:14:15;;;;;;;18.63;9.05;;;;;;;13.91;100.00;101935.38;5115901;28;20035;-72
2021/10/05 01:17:03;;;;;;;16.92;9.40;;;;;;;14.16;100.00;101945.56;5115371;28;20094;-73
2021/10/05 01:19:48;;;;;;;16.50;9.93;;;;;;;14.14;100.00;101939.47;5115952;28;20024;-73
2021/10/05 01:22:34;;;;;;;17.55;10.52;;;;;;;14.14;100.00;101939.47;5115653;28;20034;-73
2021/10/05 01:25:20;;;;;;;17.92;11.25;;;;;;;13.42;100.00;101932.38;5116513;28;20164;-73
2021/10/05 01:28:07;;;;;;;20.45;12.30;;;;;;;13.37;100.00;101939.47;5115294;28;20027;-72
2021/10/05 01:30:54;;;;;;;22.80;12.45;;;;;;;12.82;100.00;101940.75;5116354;28;20070;-73
2021/10/05 01:33:39;;;;;;;26.33;13.38;;;;;;;13.30;100.00;101939.56;5114273;28;20027;-74
2021/10/05 01:36:25;;;;;;;21.92;12.13;;;;;;;13.57;100.00;101937.50;5115426;28;20027;-73
2021/10/05 01:39:24;;;;;;;20.52;12.98;;;;;;;13.57;100.00;101934.00;5115260;28;20066;-73
2021/10/05 01:42:13;;;;;;;20.75;12.48;;;;;;;13.76;100.00;101944.34;5115550;28;20059;-73
2021/10/05 01:44:58;;;;;;;29.00;13.45;;;;;;;13.51;100.00;101940.19;5116288;28;20513;-73
2021/10/05 01:47:44;;;;;;;27.35;13.77;;;;;;;13.61;100.00;101939.22;5115433;28;20023;-73
2021/10/05 01:50:31;;;;;;;33.72;15.27;;;;;;;13.24;100.00;101943.09;5115094;28;20023;-73
2021/10/05 01:53:16;;;;;;;30.85;14.63;;;;;;;13.39;100.00;101948.22;5115905;28;20448;-73
2021/10/05 01:56:04;;;;;;;43.03;17.05;;;;;;;12.65;100.00;101947.91;5100082;28;20034;-73
2021/10/05 01:58:50;;;;;;;49.42;17.75;;;;;;;12.32;100.00;101956.00;5115312;28;20460;-72
2021/10/05 02:01:36;;;;;;;48.83;17.25;;;;;;;12.59;100.00;101963.72;5101497;28;20031;-73
2021/10/05 02:04:22;;;;;;;36.08;16.35;;;;;;;12.71;100.00;101954.88;5114003;28;20029;-72
2021/10/05 02:07:07;;;;;;;37.65;16.00;;;;;;;13.04;100.00;101952.94;5115234;28;20034;-73
2021/10/05 02:09:53;;;;;;;33.38;16.00;;;;;;;12.58;100.00;101954.06;5113685;28;20019;-72
2021/10/05 02:12:39;;;;;;;43.05;17.45;;;;;;;12.90;100.00;101954.72;5114988;28;20020;-72
2021/10/05 02:15:25;;;;;;;38.78;17.13;;;;;;;12.62;100.00;101960.22;5113268;28;20081;-72
2021/10/05 02:18:10;;;;;;;42.15;18.35;;;;;;;12.94;100.00;101963.50;5115011;28;20027;-72
2021/10/05 02:20:57;;;;;;;42.78;18.50;;;;;;;12.74;100.00;101971.50;5115106;28;20157;-73
2021/10/05 02:26:50;;;;;;;35.72;19.40;;;;;;;12.42;100.00;101973.44;5114584;28;20020;-73
2021/10/05 02:29:36;;;;;;;38.30;19.58;;;;;;;12.54;100.00;101977.78;5114803;28;20110;-73
2021/10/05 02:32:23;;;;;;;34.03;19.17;;;;;;;12.98;100.00;101981.91;5114538;28;20108;-72
2021/10/05 02:35:09;;;;;;;35.05;19.98;;;;;;;12.45;100.00;101988.31;5099024;28;20443;-73
2021/10/05 02:37:55;;;;;;;32.35;19.88;;;;;;;12.50;100.00;101989.19;5113331;28;20062;-71
2021/10/05 02:40:41;;;;;;;32.70;20.67;;;;;;;12.33;100.00;101991.88;5100712;28;20055;-73
2021/10/05 02:43:27;;;;;;;32.03;20.98;;;;;;;12.63;100.00;101988.25;5114851;28;20467;-73
2021/10/05 02:46:13;;;;;;;37.65;20.67;;;;;;;12.32;100.00;101991.88;5114068;28;20042;-72
2021/10/05 02:48:59;;;;;;;36.00;20.35;;;;;;;12.23;100.00;101986.69;5100567;28;20030;-73
2021/10/05 02:51:45;;;;;;;32.78;19.77;;;;;;;12.35;100.00;101997.16;5114175;28;20180;-74
2021/10/05 02:54:30;;;;;;;33.03;19.70;;;;;;;12.04;100.00;102004.28;5115040;28;20087;-73
2021/10/05 02:57:20;;;;;;;30.98;19.52;;;;;;;12.37;100.00;102000.63;5114576;28;20024;-72
2021/10/05 03:00:06;;;;;;;37.05;20.25;;;;;;;12.53;100.00;102005.81;5114383;28;20096;-73
2021/10/05 03:02:52;;;;;;;32.72;18.67;;;;;;;12.13;100.00;102006.00;5114578;28;20415;-73
2021/10/05 03:05:38;;;;;;;33.10;19.25;;;;;;;12.17;100.00;101999.88;5113788;28;20027;-73
2021/10/05 03:08:25;;;;;;;36.15;21.02;;;;;;;12.09;100.00;102005.13;5114456;28;20108;-73
2021/10/05 03:11:11;;;;;;;33.83;18.13;;;;;;;12.11;100.00;102008.63;5113652;28;20062;-73
2021/10/05 03:13:57;;;;;;;29.80;17.08;;;;;;;12.08;100.00;102002.50;5115341;28;20451;-74
2021/10/05 03:16:43;;;;;;;31.10;17.45;;;;;;;12.13;100.00;102006.00;5117865;28;20503;-74
2021/10/05 03:19:29;;;;;;;25.33;16.20;;;;;;;12.09;100.00;101999.00;5103542;28;20032;-73
2021/10/05 03:22:14;;;;;;;30.10;18.52;;;;;;;12.05;100.00;102003.38;5116431;28;20051;-73
2021/10/05 03:25:00;;;;;;;34.42;21.48;;;;;;;11.89;100.00;102003.44;5118565;28;20336;-74
2021/10/05 03:27:46;;;;;;;34.17;22.63;;;;;;;12.02;100.00;102008.63;5118210;28;20035;-73
2021/10/05 03:30:32;;;;;;;31.25;20.15;;;;;;;11.68;100.00;102011.34;5118387;28;20077;-73
2021/10/05 03:33:17;;;;;;;28.38;17.50;;;;;;;11.63;100.00;102011.38;5117925;28;20024;-73
2021/10/05 03:36:04;;;;;;;31.77;17.08;;;;;;;11.83;100.00;102012.22;5118403;28;20365;-74
2021/10/05 03:38:50;;;;;;;37.00;20.63;;;;;;;11.91;100.00;102007.81;5118064;28;20367;-72
2021/10/05 03:41:36;;;;;;;24.35;16.45;;;;;;;11.68;100.00;102011.34;5117316;28;20020;-72
2021/10/05 03:44:22;;;;;;;22.50;15.95;;;;;;;11.61;100.00;101999.13;5117520;28;20024;-73
2021/10/05 03:47:08;;;;;;;30.00;19.70;;;;;;;11.77;100.00;102000.84;5102598;28;20027;-72
2021/10/05 03:49:54;;;;;;;32.25;23.40;;;;;;;11.88;100.00;101988.53;5102966;28;20031;-74
2021/10/05 03:52:41;;;;;;;35.75;25.95;;;;;;;11.98;100.00;102001.66;5117676;28;20024;-73
2021/10/05 03:55:27;;;;;;;45.50;26.15;;;;;;;11.92;100.00;101996.41;5117057;28;20024;-73
2021/10/05 03:58:13;;;;;;;42.00;25.98;;;;;;;11.86;100.00;101999.03;5117668;28;20023;-72
2021/10/05 04:01:03;;;;;;;36.78;22.98;;;;;;;11.92;100.00;102006.03;5116950;28;20088;-73
2021/10/05 04:03:49;;;;;;;38.33;21.27;;;;;;;12.07;100.00;102003.38;5117089;28;20452;-73
2021/10/05 04:06:35;;;;;;;30.75;20.30;;;;;;;11.97;100.00;102006.94;5117257;28;20467;-73
2021/10/05 04:09:20;;;;;;;30.55;18.85;;;;;;;12.07;100.00;102011.25;5116782;28;20030;-73
2021/10/05 04:12:08;;;;;;;37.05;19.50;;;;;;;11.87;100.00;102013.06;5116842;28;20561;-72
2021/10/05 04:14:53;;;;;;;36.70;18.75;;;;;;;11.87;100.00;102028.81;5117307;28;20411;-72
2021/10/05 04:17:39;;;;;;;38.00;17.27;;;;;;;11.80;100.00;102030.59;5116868;28;20031;-73
2021/10/05 04:20:25;;;;;;;33.83;17.33;;;;;;;11.64;100.00;102034.09;5102397;28;20023;-73
2021/10/05 04:23:11;;;;;;;41.35;18.05;;;;;;;11.75;100.00;102029.72;5101785;28;20024;-73
2021/10/05 04:25:56;;;;;;;37.17;17.05;;;;;;;11.69;100.00;102034.97;5116621;28;20027;-73
2021/10/05 04:28:42;;;;;;;32.33;17.50;;;;;;;11.81;100.00;102041.97;5116797;28;20027;-73
2021/10/05 04:31:28;;;;;;;35.45;16.45;;;;;;;11.68;100.00;102033.22;5116482;28;20035;-73
2021/10/05 04:34:14;;;;;;;29.85;16.50;;;;;;;11.61;100.00;102054.25;5115800;28;20122;-73
2021/10/05 04:37:00;;;;;;;32.03;17.08;;;;;;;10.95;100.00;102062.88;5116250;28;20036;-73
2021/10/05 04:39:45;;;;;;;37.40;17.10;;;;;;;11.03;100.00;102069.03;5116130;28;20467;-72
2021/10/05 04:42:31;;;;;;;32.67;17.95;;;;;;;10.85;100.00;102066.34;5116517;28;20020;-73
2021/10/05 04:45:17;;;;;;;39.92;18.05;;;;;;;11.30;100.00;102087.44;5116680;28;20047;-73
2021/10/05 04:48:07;;;;;;;33.40;18.25;;;;;;;11.01;100.00;102081.25;5115845;28;20104;-72
2021/10/05 04:50:53;;;;;;;39.03;18.95;;;;;;;11.34;100.00;102088.31;5101272;28;20440;-73
2021/10/05 04:53:38;;;;;;;35.78;18.92;;;;;;;11.02;100.00;102093.50;5116108;28;20031;-72
2021/10/05 04:56:24;;;;;;;36.50;19.15;;;;;;;11.12;100.00;102095.25;5101628;28;20491;-72
2021/10/05 04:59:10;;;;;;;34.08;19.15;;;;;;;11.25;100.00;102104.91;5116433;28;20093;-72
2021/10/05 05:01:56;;;;;;;38.72;18.05;;;;;;;11.40;100.00;102104.94;5101158;28;20027;-73
2021/10/05 05:04:42;;;;;;;34.13;19.13;;;;;;;11.21;100.00;102110.16;5115510;28;20038;-73
2021/10/05 05:07:29;;;;;;;34.83;18.67;;;;;;;11.31;100.00;102110.19;5100296;28;20039;-73
2021/10/05 05:10:14;;;;;;;34.50;18.95;;;;;;;11.17;100.00;102119.75;5100513;28;20047;-73
2021/10/05 05:13:00;;;;;;;33.08;18.63;;;;;;;10.92;100.00;102109.19;5101099;28;20126;-73
2021/10/05 05:15:46;;;;;;;27.77;17.52;;;;;;;11.33;100.00;102118.06;5101461;28;20366;-73
2021/10/05 05:18:32;;;;;;;30.83;17.73;;;;;;;11.46;100.00;102117.19;5116463;28;20106;-73
2021/10/05 05:21:17;;;;;;;27.27;16.80;;;;;;;11.82;100.00;102115.47;5114274;28;20038;-73
2021/10/05 05:24:04;;;;;;;26.00;16.23;;;;;;;11.94;100.00;102117.25;5115191;28;20024;-73
2021/10/05 05:26:49;;;;;;;26.73;16.42;;;;;;;11.95;100.00;102117.25;5115282;28;20131;-73
2021/10/05 05:29:35;;;;;;;28.02;15.85;;;;;;;12.17;100.00;102118.09;5100657;28;20033;-73
2021/10/05 05:32:21;;;;;;;28.10;15.57;;;;;;;12.22;100.00;102118.97;5115146;28;20482;-73
2021/10/05 05:35:07;;;;;;;25.27;16.60;;;;;;;12.23;100.00;102118.97;5100527;28;20042;-72
2021/10/05 05:37:53;;;;;;;28.65;16.70;;;;;;;12.34;100.00;102121.56;5099172;28;20024;-72
2021/10/05 05:40:39;;;;;;;31.90;17.02;;;;;;;12.32;100.00;102126.81;5100007;28;20054;-73
2021/10/05 05:43:25;;;;;;;30.20;18.25;;;;;;;11.81;100.00;102131.25;5101069;28;20024;-73
2021/10/05 05:46:11;;;;;;;36.70;18.17;;;;;;;11.72;100.00;102139.09;5114698;28;20028;-73
2021/10/05 05:48:57;;;;;;;33.25;16.90;;;;;;;12.08;100.00;102128.59;5100521;28;20333;-73
2021/10/05 05:51:43;;;;;;;42.50;18.58;;;;;;;12.30;100.00;102139.06;5115149;28;20024;-73
2021/10/05 05:54:29;;;;;;;36.15;18.13;;;;;;;12.63;100.00;102140.75;5115088;28;20134;-72
2021/10/05 05:57:14;;;;;;;31.38;17.08;;;;;;;12.50;100.00;102145.16;5115218;28;20027;-73
2021/10/05 06:00:00;;;;;;;35.08;16.30;;;;;;;12.43;100.00;102151.31;5114606;28;20024;-73
2021/10/05 06:02:46;;;;;;;32.55;16.95;;;;;;;12.73;100.00;102158.22;5115260;28;20046;-72
2021/10/05 06:05:33;;;;;;;33.20;16.45;;;;;;;13.17;100.00;102167.72;5114896;28;20115;-72
2021/10/05 06:08:18;;;;;;;31.42;15.18;;;;;;;12.81;100.00;102167.84;5114045;28;20412;-73
2021/10/05 06:11:04;;;;;;;25.33;14.15;;;;;;;13.03;100.00;102163.41;5114902;28;20055;-73
2021/10/05 06:13:50;;;;;;;25.10;13.48;;;;;;;13.51;100.00;102168.41;5114561;28;20371;-73
2021/10/05 06:16:36;;;;;;;21.70;12.18;;;;;;;13.25;100.00;102162.41;5099001;28;20023;-74
2021/10/05 06:19:22;;;;;;;22.83;11.98;;;;;;;13.14;100.00;102170.38;5101237;28;20027;-74
2021/10/05 06:22:08;;;;;;;24.38;12.45;;;;;;;13.24;100.00;102176.47;5099777;28;20089;-72
2021/10/05 06:24:53;;;;;;;26.67;11.30;;;;;;;13.19;100.00;102175.63;5115544;28;20031;-74
2021/10/05 06:27:39;;;;;;;22.02;12.30;;;;;;;13.45;100.00;102185.13;5113564;28;20024;-72
2021/10/05 06:30:26;;;;;;;22.58;11.98;;;;;;;13.86;100.00;102184.81;5114503;28;20039;-73
2021/10/05 06:33:12;;;;;;;29.67;11.45;;;;;;;13.51;100.00;102197.38;5099876;28;20070;-74
2021/10/05 06:35:58;;;;;;;23.40;11.27;;;;;;;13.92;100.00;102196.22;5114308;28;20527;-74
2021/10/05 06:38:44;;;;;;;27.58;11.73;;;;;;;14.00;100.00;102202.31;5114872;28;20114;-71
2021/10/05 06:41:30;;;;;;;20.02;11.32;;;;;;;14.47;100.00;102199.28;5113806;28;20092;-73
2021/10/05 06:44:16;;;;;;;17.70;10.52;;;;;;;14.92;100.00;102208.47;5099980;28;20359;-72
2021/10/05 06:47:02;;;;;;;18.55;10.20;;;;;;;15.24;100.00;102201.91;5114048;28;20034;-73
2021/10/05 06:49:48;;;;;;;18.52;10.38;;;;;;;15.09;100.00;102201.19;5114310;28;20457;-73
2021/10/05 06:52:33;;;;;;;19.08;10.10;;;;;;;14.85;100.00;102202.38;5114534;28;20028;-73
2021/10/05 06:55:19;;;;;;;25.20;10.10;;;;;;;14.86;100.00;102198.00;5114312;28;20038;-72
2021/10/05 06:58:05;;;;;;;26.38;10.60;;;;;;;14.82;100.00;102196.28;5114422;28;20023;-72
2021/10/05 07:00:51;;;;;;;20.83;10.10;;;;;;;14.66;100.00;102195.53;5113773;28;20459;-73
2021/10/05 07:03:37;;;;;;;23.98;10.93;;;;;;;15.15;100.00;102195.88;5114180;28;20020;-72
2021/10/05 07:06:23;;;;;;;21.95;11.20;;;;;;;14.93;100.00;102197.88;5113256;28;20032;-72
2021/10/05 07:09:08;;;;;;;27.15;11.60;;;;;;;14.64;100.00;102186.78;5114560;28;20024;-72
2021/10/05 07:11:54;;;;;;;23.50;11.93;;;;;;;15.28;100.00;102193.06;5113412;28;20500;-73
2021/10/05 07:14:40;;;;;;;23.23;11.27;;;;;;;15.63;100.00;102193.44;5114855;28;20027;-72
2021/10/05 07:17:26;;;;;;;26.02;10.65;;;;;;;15.51;100.00;102196.25;5098679;28;20038;-73
2021/10/05 07:20:12;;;;;;;24.98;10.98;;;;;;;15.64;100.00;102195.22;5098558;28;20030;-73
2021/10/05 07:22:59;;;;;;;17.75;10.05;;;;;;;15.89;100.00;102193.06;5113757;28;20028;-72
2021/10/05 07:25:44;;;;;;;17.52;9.45;;;;;;;16.30;100.00;102182.66;5100294;28;20062;-71
2021/10/05 07:28:30;;;;;;;13.18;8.63;;;;;;;16.47;100.00;102183.28;5099712;28;20460;-73
2021/10/05 07:31:16;;;;;;;20.08;10.02;;;;;;;16.87;100.00;102185.13;5115142;28;20028;-73
2021/10/05 07:34:03;;;;;;;21.52;10.25;;;;;;;16.81;100.00;102192.31;5113995;28;20020;-72
2021/10/05 07:36:49;;;;;;;17.27;8.50;;;;;;;17.52;100.00;102191.72;5114548;28;20038;-73
2021/10/05 07:39:36;;;;;;;18.42;7.90;;;;;;;17.93;100.00;102189.81;5113599;28;20024;-74
2021/10/05 07:42:21;;;;;;;14.48;7.03;;;;;;;17.60;100.00;102197.72;5113339;28;20038;-74
2021/10/05 07:45:07;;;;;;;23.13;9.10;;;;;;;17.82;100.00;102198.94;5113786;28;20413;-73
2021/10/05 07:47:54;;;;;;;21.08;8.70;;;;;;;17.94;100.00;102183.63;5113699;28;20039;-74
2021/10/05 07:50:40;;;;;;;14.15;7.32;;;;;;;17.86;100.00;102190.88;5114484;28;20039;-73
2021/10/05 07:53:26;;;;;;;29.00;9.77;;;;;;;17.85;100.00;102196.22;5113720;28;20060;-75
2021/10/05 07:56:12;;;;;;;28.98;9.77;;;;;;;17.97;100.00;102187.97;5114434;28;20023;-73
2021/10/05 07:58:58;;;;;;;21.58;7.70;;;;;;;17.97;100.00;102186.19;5113992;28;20020;-73
2021/10/05 08:01:49;;;;;;;19.98;8.00;;;;;;;18.40;100.00;102186.00;5115971;28;20353;-72
2021/10/05 08:04:35;;;;;;;22.98;9.60;;;;;;;18.89;99.91;102189.94;5117059;28;20024;-72
2021/10/05 08:07:21;;;;;;;21.60;8.02;;;;;;;19.06;95.07;102200.94;5103937;28;20062;-72
2021/10/05 08:10:07;;;;;;;14.05;6.78;;;;;;;18.84;93.99;102201.59;5117304;28;20127;-73
2021/10/05 08:12:53;;;;;;;9.25;5.32;;;;;;;19.12;84.35;102206.09;5117658;28;20149;-73
2021/10/05 08:15:39;;;;;;;10.73;5.13;;;;;;;19.34;82.92;102194.84;5117179;28;20028;-73
2021/10/05 08:18:25;;;;;;;6.47;4.57;;;;;;;19.55;78.44;102211.03;5117311;28;20035;-73
2021/10/05 08:21:16;;;;;;;7.65;5.28;;;;;;;19.72;76.55;102210.50;5117014;28;20024;-73
2021/10/05 08:24:02;;;;;;;9.35;5.78;;;;;;;19.72;76.08;102214.03;5116995;28;20094;-74
2021/10/05 08:26:48;;;;;;;8.25;4.90;;;;;;;19.13;74.73;102209.63;5101816;28;20035;-73
2021/10/05 08:29:37;;;;;;;8.07;5.35;;;;;;;19.82;73.58;102196.88;5116245;28;20020;-72
2021/10/05 08:32:23;;;;;;;8.95;5.07;;;;;;;20.12;74.13;102200.34;5117378;28;20024;-74
2021/10/05 08:35:10;;;;;;;11.80;5.10;;;;;;;20.25;73.07;102201.69;5117005;28;20452;-73
2021/10/05 08:37:57;;;;;;;10.10;4.53;;;;;;;20.11;73.76;102195.94;5101207;28;20046;-73
2021/10/05 08:40:42;;;;;;;14.40;4.93;;;;;;;20.04;75.34;102195.25;5116956;28;20082;-73
2021/10/05 08:43:29;;;;;;;15.35;4.85;;;;;;;21.08;69.54;102202.25;5116882;28;20019;-73
2021/10/05 08:46:15;;;;;;;10.65;5.15;;;;;;;20.89;68.41;102196.69;5116784;28;20106;-73
2021/10/05 08:49:01;;;;;;;8.40;4.50;;;;;;;20.61;67.22;102203.09;5117203;28;20019;-72
2021/10/05 08:51:48;;;;;;;8.18;4.90;;;;;;;20.31;68.61;102193.47;5117048;28;20019;-72
2021/10/05 08:54:34;;;;;;;10.10;4.68;;;;;;;20.77;65.18;102191.81;5116018;28;20032;-72
2021/10/05 08:57:20;;;;;;;12.75;4.70;;;;;;;20.03;67.16;102190.84;5117154;28;20028;-72
2021/10/05 09:00:06;;;;;;;9.98;4.55;;;;;;;20.52;68.36;102187.41;5116333;28;20055;-72
2021/10/05 09:02:54;;;;;;;10.60;4.47;;;;;;;20.81;64.12;102195.25;5101488;28;20055;-73
2021/10/05 09:05:40;;;;;;;11.90;4.70;;;;;;;20.50;62.86;102195.47;5115728;28;20409;-73
2021/10/05 09:08:30;;;;;;;10.32;4.60;;;;;;;20.33;65.05;102181.00;5100849;28;20039;-72
2021/10/05 09:11:18;;;;;;;10.68;4.82;;;;;;;20.62;62.90;102186.16;5115615;28;20048;-72
2021/10/05 09:14:04;;;;;;;10.15;5.10;;;;;;;20.46;62.64;102175.19;5116458;28;20031;-73
2021/10/05 09:16:58;;;;;;;8.60;4.93;;;;;;;20.69;60.89;102190.38;5100160;28;20024;-72
2021/10/05 09:19:43;;;;;;;11.40;4.85;;;;;;;20.08;62.30;102191.56;5115252;28;20035;-73
2021/10/05 09:22:30;;;;;;;5.82;4.10;;;;;;;20.42;60.19;102180.69;5115571;28;20035;-73
2021/10/05 09:25:34;;;;;;;11.68;4.75;;;;;;;20.18;57.70;102184.19;5117211;28;20110;-72
2021/10/05 09:28:25;;;;;;;32.30;21.20;;;;;;;20.79;56.88;102179.31;5115996;28;20024;-73
2021/10/05 09:31:11;;;;;;;11.90;4.63;;;;;;;20.38;57.50;102179.91;5115865;28;20088;-73
2021/10/05 09:33:57;;;;;;;11.95;4.80;;;;;;;20.56;57.37;102173.06;5100700;28;20031;-74
2021/10/05 09:36:43;;;;;;;12.30;4.35;;;;;;;20.44;56.94;102174.38;5115433;28;20031;-72
2021/10/05 09:39:36;;;;;;;13.23;4.53;;;;;;;20.49;56.94;102171.56;5115533;28;20031;-73
2021/10/05 09:42:29;;;;;;;12.07;4.18;;;;;;;20.09;57.00;102171.16;5100114;28;20023;-72
2021/10/05 09:45:17;;;;;;;9.25;4.47;;;;;;;20.46;56.08;102169.88;5115970;28;20019;-72
2021/10/05 09:48:07;;;;;;;8.38;4.30;;;;;;;20.38;55.13;102169.28;5100796;28;20034;-73
2021/10/05 09:50:53;;;;;;;10.90;4.57;;;;;;;20.44;54.44;102182.34;5100049;28;20039;-74
2021/10/05 09:53:39;;;;;;;9.63;4.50;;;;;;;20.45;53.77;102177.91;5086390;28;20020;-73
2021/10/05 09:56:27;;;;;;;7.78;4.47;;;;;;;20.80;53.62;102167.72;5114880;28;20181;-72
2021/10/05 09:59:13;;;;;;;11.63;4.45;;;;;;;20.63;53.04;102169.25;5114840;28;20042;-72
2021/10/05 10:01:59;;;;;;;15.70;4.82;;;;;;;20.57;53.41;102173.00;5101575;28;20037;-74
2021/10/05 10:04:45;;;;;;;8.65;4.28;;;;;;;20.24;53.02;102175.97;5114722;28;20011;-73
2021/10/05 10:07:36;;;;;;;9.52;4.30;;;;;;;20.60;53.35;102177.34;5115463;28;20024;-73
2021/10/05 10:10:28;;;;;;;11.35;4.85;;;;;;;20.54;53.42;102174.91;5115222;28;20047;-73
2021/10/05 10:13:18;;;;;;;5.65;4.43;;;;;;;20.21;54.38;102171.63;5100553;28;20050;-72
2021/10/05 10:16:05;;;;;;;16.35;4.90;;;;;;;20.46;53.14;102169.00;5114937;28;20418;-73
2021/10/05 10:19:02;;;;;;;12.50;5.15;;;;;;;20.60;51.95;102169.34;5115740;28;20027;-73
2021/10/05 10:21:48;;;;;;;13.38;4.97;;;;;;;20.67;52.42;102169.09;5114904;28;20047;-73
2021/10/05 10:24:57;;;;;;;10.25;4.38;;;;;;;20.75;51.74;102169.69;5113922;28;20089;-73
2021/10/05 10:27:45;;;;;;;8.65;4.32;;;;;;;20.87;51.49;102174.59;5114477;28;20051;-73
2021/10/05 10:30:31;;;;;;;9.38;4.25;;;;;;;21.09;51.55;102170.22;5115018;28;20020;-72
2021/10/05 10:33:18;;;;;;;10.32;4.63;;;;;;;21.18;49.61;102177.84;5114923;28;20110;-72
2021/10/05 10:36:04;;;;;;;10.82;4.65;;;;;;;21.05;49.84;102167.75;5112481;28;20042;-73
2021/10/05 10:38:50;;;;;;;10.23;4.38;;;;;;;20.96;50.36;102166.28;5114732;28;20027;-73
2021/10/05 10:41:39;;;;;;;16.88;10.73;;;;;;;21.24;48.96;102155.41;5113906;28;20034;-73
2021/10/05 10:44:31;;;;;;;7.88;4.35;;;;;;;20.73;49.81;102157.38;5114805;28;20081;-73
2021/10/05 10:47:19;;;;;;;8.85;4.65;;;;;;;21.10;50.01;102155.09;5113863;28;20023;-72
2021/10/05 10:50:08;;;;;;;9.25;4.32;;;;;;;21.09;50.06;102154.22;5114744;28;20088;-73
2021/10/05 10:53:04;;;;;;;7.25;4.63;;;;;;;20.85;49.54;102151.59;5113742;28;20409;-74
2021/10/05 10:55:54;;;;;;;8.75;4.30;;;;;;;21.21;49.58;102144.88;5099518;28;20494;-73
2021/10/05 10:58:45;;;;;;;16.45;5.15;;;;;;;21.61;48.45;102151.25;5113926;28;20031;-73
2021/10/05 11:01:45;;;;;;;9.75;4.05;;;;;;;21.15;47.15;102150.44;5114587;28;20038;-72
2021/10/05 11:04:33;;;;;;;9.10;4.13;;;;;;;21.27;46.20;102142.88;5114251;28;20106;-72
2021/10/05 11:07:18;;;;;;;9.30;4.32;;;;;;;21.67;45.42;102137.69;5098810;28;20513;-73
2021/10/05 11:10:06;;;;;;;4.97;3.72;;;;;;;21.55;44.91;102140.84;5114239;28;20055;-73
2021/10/05 11:12:55;;;;;;;8.40;4.22;;;;;;;22.17;44.04;102133.78;5114090;28;20027;-74
2021/10/05 11:15:48;;;;;;;8.18;4.00;;;;;;;21.94;43.75;102138.38;5114817;28;20114;-73
2021/10/05 11:18:37;;;;;;;6.15;4.53;;;;;;;22.28;42.75;102131.53;5114937;28;20444;-73
2021/10/05 11:21:35;;;;;;;7.95;4.47;;;;;;;22.20;43.16;102139.00;5112964;28;20149;-73
2021/10/05 11:24:20;;;;;;;9.52;4.57;;;;;;;21.90;42.97;102131.44;5113483;28;20026;-73
2021/10/05 11:27:13;;;;;;;19.55;10.35;;;;;;;22.34;43.10;102125.91;5114166;28;20481;-73
2021/10/05 11:30:02;;;;;;;12.75;7.78;;;;;;;22.34;41.70;102120.56;5113271;28;20084;-73
2021/10/05 11:32:49;;;;;;;10.45;5.53;;;;;;;21.87;41.90;102128.88;5098233;28;20027;-72
2021/10/05 11:35:41;;;;;;;11.00;4.80;;;;;;;22.12;41.03;102124.22;5112724;28;20038;-73
2021/10/05 11:38:41;;;;;;;8.70;4.47;;;;;;;22.83;40.66;102133.50;5117818;28;20077;-73
2021/10/05 11:41:39;;;;;;;9.88;4.53;;;;;;;22.25;40.90;102118.31;5102750;28;20027;-73
2021/10/05 11:44:27;;;;;;;10.85;4.45;;;;;;;22.11;41.87;102109.16;5117572;28;20027;-73
2021/10/05 11:47:16;;;;;;;16.85;5.40;;;;;;;22.70;41.78;102118.97;5102488;28;20034;-72
2021/10/05 11:50:06;;;;;;;9.95;4.47;;;;;;;22.72;39.71;102121.56;5117827;28;20106;-73
2021/10/05 11:52:52;;;;;;;12.27;4.60;;;;;;;22.53;39.24;102113.50;5117147;28;20503;-73
2021/10/05 11:55:38;;;;;;;8.82;4.68;;;;;;;22.29;40.25;102111.91;5117909;28;20028;-73
2021/10/05 11:58:24;;;;;;;10.05;4.90;;;;;;;22.08;40.56;102114.63;5117603;28;20047;-73
2021/10/05 12:01:16;;;;;;;10.57;4.70;;;;;;;22.38;40.91;102108.81;5118094;28;20096;-72
2021/10/05 12:04:08;;;;;;;7.88;4.40;;;;;;;21.89;40.47;102108.31;5116965;28;20036;-73
2021/10/05 12:07:00;;;;;;;7.68;4.40;;;;;;;22.13;40.65;102108.16;5118016;28;20088;-72
2021/10/05 12:09:56;;;;;;;9.00;4.35;;;;;;;22.07;40.25;102102.22;5117805;28;20024;-72
2021/10/05 12:12:42;;;;;;;18.58;4.35;;;;;;;22.08;40.07;102098.59;5117589;28;20115;-73
2021/10/05 12:15:30;;;;;;;7.20;4.32;;;;;;;21.85;40.53;102102.25;5116756;28;20023;-72
2021/10/05 12:18:17;;;;;;;10.50;4.60;;;;;;;21.78;40.24;102095.44;5117800;28;20356;-72
2021/10/05 12:21:09;;;;;;;13.32;4.40;;;;;;;22.23;39.58;102092.59;5118017;28;20039;-73
2021/10/05 12:23:58;;;;;;;11.07;3.97;;;;;;;22.21;39.06;102095.34;5115975;28;20023;-72
2021/10/05 12:26:51;;;;;;;10.63;4.20;;;;;;;21.81;39.51;102086.41;5117120;28;20063;-73
2021/10/05 12:29:49;;;;;;;8.07;4.35;;;;;;;21.88;39.42;102080.78;5115944;28;20035;-73
2021/10/05 12:32:43;;;;;;;9.60;4.28;;;;;;;21.65;39.65;102088.84;5116718;28;20050;-73
2021/10/05 12:35:38;;;;;;;14.88;4.72;;;;;;;21.93;38.19;102076.09;5116113;28;20028;-72
2021/10/05 12:38:24;;;;;;;7.10;4.13;;;;;;;21.75;37.10;102078.69;5116466;28;20028;-74
2021/10/05 12:41:10;;;;;;;10.55;4.40;;;;;;;21.68;36.91;102080.72;5101952;28;20096;-72
2021/10/05 12:43:56;;;;;;;14.60;5.35;;;;;;;21.96;36.48;102092.00;5117908;28;20119;-72